sensor_id;sensor_type;location;lat;lon;timestamp;pressure;altitude;pressure_sealevel;temperature;humidity
55687;BME280;41911;52.362;4.978;2022-07-06T00:00:27;102619.73;;;15.60;38.39
55687;BME280;41911;52.362;4.978;2022-07-06T00:00:58;102618.90;;;15.95;38.42
55687;BME280;41911;52.362;4.978;2022-07-06T00:01:29;102619.51;;;15.79;38.31
55687;BME280;41911;52.362;4.978;2022-07-06T00:02:00;102618.17;;;15.78;38.33
55687;BME280;41911;52.362;4.978;2022-07-06T00:02:32;102615.70;;;15.98;38.35
55687;BME280;41911;52.362;4.978;2022-07-06T00:03:03;102616.94;;;15.75;38.30
55687;BME280;41911;52.362;4.978;2022-07-06T00:03:34;102614.33;;;15.94;38.04
55687;BME280;41911;52.362;4.978;2022-07-06T00:04:05;102615.04;;;16.23;38.09
55687;BME280;41911;52.362;4.978;2022-07-06T00:04:36;102615.29;;;16.21;38.02
55687;BME280;41911;52.362;4.978;2022-07-06T00:05:08;102611.81;;;15.95;38.16
55687;BME280;41911;52.362;4.978;2022-07-06T00:05:39;102613.65;;;15.90;38.35
55687;BME280;41911;52.362;4.978;2022-07-06T00:06:10;102616.06;;;15.85;38.47
55687;BME280;41911;52.362;4.978;2022-07-06T00:06:41;102614.38;;;15.97;38.25
55687;BME280;41911;52.362;4.978;2022-07-06T00:07:12;102613.77;;;16.00;38.25
55687;BME280;41911;52.362;4.978;2022-07-06T00:07:43;102618.06;;;15.90;38.39
55687;BME280;41911;52.362;4.978;2022-07-06T00:08:14;102616.73;;;15.80;38.27
55687;BME280;41911;52.362;4.978;2022-07-06T00:08:45;102618.33;;;16.18;38.08
55687;BME280;41911;52.362;4.978;2022-07-06T00:09:16;102618.47;;;15.92;38.30
55687;BME280;41911;52.362;4.978;2022-07-06T00:09:47;102616.47;;;15.97;38.04
55687;BME280;41911;52.362;4.978;2022-07-06T00:10:18;102619.39;;;16.23;37.93
55687;BME280;41911;52.362;4.978;2022-07-06T00:10:49;102620.13;;;15.85;38.07
55687;BME280;41911;52.362;4.978;2022-07-06T00:11:20;102618.13;;;15.89;38.09
55687;BME280;41911;52.362;4.978;2022-07-06T00:11:51;102617.10;;;15.95;38.15
55687;BME280;41911;52.362;4.978;2022-07-06T00:12:22;102615.53;;;15.91;38.10
55687;BME280;41911;52.362;4.978;2022-07-06T00:12:53;102613.45;;;16.25;38.15
55687;BME280;41911;52.362;4.978;2022-07-06T00:13:24;102612.02;;;15.98;38.14
55687;BME280;41911;52.362;4.978;2022-07-06T00:13:55;102612.44;;;16.15;38.00
55687;BME280;41911;52.362;4.978;2022-07-06T00:14:26;102610.32;;;16.05;38.12
55687;BME280;41911;52.362;4.978;2022-07-06T00:14:57;102609.05;;;16.15;37.93
55687;BME280;41911;52.362;4.978;2022-07-06T00:15:28;102606.06;;;16.07;38.00
55687;BME280;41911;52.362;4.978;2022-07-06T00:15:59;102605.64;;;16.11;38.06
55687;BME280;41911;52.362;4.978;2022-07-06T00:16:31;102605.90;;;16.07;38.06
55687;BME280;41911;52.362;4.978;2022-07-06T00:17:03;102608.22;;;16.15;38.01
55687;BME280;41911;52.362;4.978;2022-07-06T00:17:34;102608.79;;;16.12;38.02
55687;BME280;41911;52.362;4.978;2022-07-06T00:18:05;102610.97;;;16.14;38.09
55687;BME280;41911;52.362;4.978;2022-07-06T00:18:36;102611.16;;;16.16;38.06
55687;BME280;41911;52.362;4.978;2022-07-06T00:19:07;102610.21;;;15.84;38.13
55687;BME280;41911;52.362;4.978;2022-07-06T00:19:38;102609.52;;;16.16;38.01
55687;BME280;41911;52.362;4.978;2022-07-06T00:20:10;102611.66;;;16.18;37.96
55687;BME280;41911;52.362;4.978;2022-07-06T00:20:41;102614.90;;;16.05;38.06
55687;BME280;41911;52.362;4.978;2022-07-06T00:21:12;102614.66;;;16.03;38.16
55687;BME280;41911;52.362;4.978;2022-07-06T00:21:43;102614.75;;;16.03;38.15
55687;BME280;41911;52.362;4.978;2022-07-06T00:22:13;102613.34;;;15.90;37.90
55687;BME280;41911;52.362;4.978;2022-07-06T00:22:44;102613.41;;;16.09;38.12
55687;BME280;41911;52.362;4.978;2022-07-06T00:23:15;102614.30;;;15.97;38.17
55687;BME280;41911;52.362;4.978;2022-07-06T00:23:46;102615.75;;;16.00;38.29
55687;BME280;41911;52.362;4.978;2022-07-06T00:24:17;102612.05;;;15.93;38.47
55687;BME280;41911;52.362;4.978;2022-07-06T00:24:48;102613.68;;;15.94;38.50
55687;BME280;41911;52.362;4.978;2022-07-06T00:25:19;102612.40;;;15.96;38.51
55687;BME280;41911;52.362;4.978;2022-07-06T00:25:50;102613.46;;;16.01;38.53
55687;BME280;41911;52.362;4.978;2022-07-06T00:26:21;102610.76;;;16.10;38.36
55687;BME280;41911;52.362;4.978;2022-07-06T00:26:52;102610.42;;;16.06;38.34
55687;BME280;41911;52.362;4.978;2022-07-06T00:27:23;102611.36;;;15.86;38.29
55687;BME280;41911;52.362;4.978;2022-07-06T00:27:54;102614.04;;;16.15;38.40
55687;BME280;41911;52.362;4.978;2022-07-06T00:28:25;102615.25;;;16.18;38.36
55687;BME280;41911;52.362;4.978;2022-07-06T00:28:56;102616.44;;;15.85;38.33
55687;BME280;41911;52.362;4.978;2022-07-06T00:29:27;102614.89;;;15.95;38.26
55687;BME280;41911;52.362;4.978;2022-07-06T00:29:58;102616.46;;;16.20;38.22
55687;BME280;41911;52.362;4.978;2022-07-06T00:30:29;102616.51;;;16.36;38.07
55687;BME280;41911;52.362;4.978;2022-07-06T00:31:00;102617.05;;;16.24;38.21
55687;BME280;41911;52.362;4.978;2022-07-06T00:31:31;102615.58;;;16.32;38.16
55687;BME280;41911;52.362;4.978;2022-07-06T00:32:03;102615.35;;;16.06;38.21
55687;BME280;41911;52.362;4.978;2022-07-06T00:32:34;102615.06;;;16.30;38.11
55687;BME280;41911;52.362;4.978;2022-07-06T00:33:05;102613.93;;;15.75;38.10
55687;BME280;41911;52.362;4.978;2022-07-06T00:33:36;102614.58;;;16.15;37.92
55687;BME280;41911;52.362;4.978;2022-07-06T00:34:07;102613.15;;;15.94;38.18
55687;BME280;41911;52.362;4.978;2022-07-06T00:34:38;102614.74;;;16.25;38.20
55687;BME280;41911;52.362;4.978;2022-07-06T00:35:09;102612.95;;;15.91;38.00
55687;BME280;41911;52.362;4.978;2022-07-06T00:35:40;102613.57;;;15.85;38.22
55687;BME280;41911;52.362;4.978;2022-07-06T00:36:11;102613.60;;;15.84;38.33
55687;BME280;41911;52.362;4.978;2022-07-06T00:36:42;102614.20;;;16.08;38.36
55687;BME280;41911;52.362;4.978;2022-07-06T00:37:13;102613.56;;;15.82;38.36
55687;BME280;41911;52.362;4.978;2022-07-06T00:37:44;102613.73;;;16.20;38.32
55687;BME280;41911;52.362;4.978;2022-07-06T00:38:15;102614.48;;;15.87;38.36
55687;BME280;41911;52.362;4.978;2022-07-06T00:38:47;102611.49;;;16.18;38.32
55687;BME280;41911;52.362;4.978;2022-07-06T00:39:18;102613.16;;;16.07;38.36
55687;BME280;41911;52.362;4.978;2022-07-06T00:39:48;102615.13;;;16.03;38.38
55687;BME280;41911;52.362;4.978;2022-07-06T00:40:20;102614.90;;;15.75;38.51
55687;BME280;41911;52.362;4.978;2022-07-06T00:40:51;102611.62;;;16.16;38.34
55687;BME280;41911;52.362;4.978;2022-07-06T00:41:22;102614.03;;;15.88;38.30
55687;BME280;41911;52.362;4.978;2022-07-06T00:41:53;102614.47;;;16.28;38.29
55687;BME280;41911;52.362;4.978;2022-07-06T00:42:24;102613.65;;;16.13;38.58
55687;BME280;41911;52.362;4.978;2022-07-06T00:42:55;102614.85;;;16.05;38.71
55687;BME280;41911;52.362;4.978;2022-07-06T00:43:26;102617.79;;;15.60;38.51
55687;BME280;41911;52.362;4.978;2022-07-06T00:43:57;102616.11;;;15.96;38.63
55687;BME280;41911;52.362;4.978;2022-07-06T00:44:28;102618.40;;;15.61;38.73
55687;BME280;41911;52.362;4.978;2022-07-06T00:44:59;102617.39;;;15.94;38.83
55687;BME280;41911;52.362;4.978;2022-07-06T00:45:30;102616.49;;;15.99;38.78
55687;BME280;41911;52.362;4.978;2022-07-06T00:46:01;102618.14;;;15.98;38.72
55687;BME280;41911;52.362;4.978;2022-07-06T00:46:32;102616.13;;;15.97;38.81
55687;BME280;41911;52.362;4.978;2022-07-06T00:47:03;102616.76;;;15.98;38.88
55687;BME280;41911;52.362;4.978;2022-07-06T00:47:34;102615.69;;;16.23;38.89
55687;BME280;41911;52.362;4.978;2022-07-06T00:48:05;102614.19;;;16.05;38.80
55687;BME280;41911;52.362;4.978;2022-07-06T00:48:36;102614.78;;;16.06;38.77
55687;BME280;41911;52.362;4.978;2022-07-06T00:49:07;102612.82;;;15.76;38.72
55687;BME280;41911;52.362;4.978;2022-07-06T00:49:38;102614.59;;;16.06;38.61
55687;BME280;41911;52.362;4.978;2022-07-06T00:50:11;102614.56;;;16.19;38.42
55687;BME280;41911;52.362;4.978;2022-07-06T00:50:42;102615.47;;;16.13;38.39
55687;BME280;41911;52.362;4.978;2022-07-06T00:51:13;102614.14;;;15.82;38.40
55687;BME280;41911;52.362;4.978;2022-07-06T00:51:45;102612.34;;;16.04;38.45
55687;BME280;41911;52.362;4.978;2022-07-06T00:52:16;102613.04;;;16.05;38.42
55687;BME280;41911;52.362;4.978;2022-07-06T00:52:49;102614.82;;;15.98;38.69
55687;BME280;41911;52.362;4.978;2022-07-06T00:53:20;102614.77;;;15.66;38.35
55687;BME280;41911;52.362;4.978;2022-07-06T00:53:51;102614.98;;;15.91;38.34
55687;BME280;41911;52.362;4.978;2022-07-06T00:54:22;102614.33;;;15.90;38.45
55687;BME280;41911;52.362;4.978;2022-07-06T00:54:54;102615.54;;;15.86;38.57
55687;BME280;41911;52.362;4.978;2022-07-06T00:55:27;102613.18;;;15.87;38.60
55687;BME280;41911;52.362;4.978;2022-07-06T00:55:59;102613.93;;;15.88;38.76
55687;BME280;41911;52.362;4.978;2022-07-06T00:56:31;102612.07;;;15.90;38.80
55687;BME280;41911;52.362;4.978;2022-07-06T00:57:03;102609.95;;;16.21;38.57
55687;BME280;41911;52.362;4.978;2022-07-06T00:57:34;102611.67;;;15.89;38.70
55687;BME280;41911;52.362;4.978;2022-07-06T00:58:06;102613.62;;;15.85;38.83
55687;BME280;41911;52.362;4.978;2022-07-06T00:58:37;102613.15;;;15.84;38.66
55687;BME280;41911;52.362;4.978;2022-07-06T00:59:08;102612.21;;;15.71;38.39
55687;BME280;41911;52.362;4.978;2022-07-06T00:59:40;102609.78;;;15.28;38.71
55687;BME280;41911;52.362;4.978;2022-07-06T01:00:13;102610.52;;;15.38;39.06
55687;BME280;41911;52.362;4.978;2022-07-06T01:00:44;102608.70;;;15.80;38.43
55687;BME280;41911;52.362;4.978;2022-07-06T01:01:15;102607.78;;;16.10;38.56
55687;BME280;41911;52.362;4.978;2022-07-06T01:01:46;102605.67;;;15.89;38.80
55687;BME280;41911;52.362;4.978;2022-07-06T01:02:17;102606.88;;;15.47;38.91
55687;BME280;41911;52.362;4.978;2022-07-06T01:02:49;102606.03;;;15.59;38.91
55687;BME280;41911;52.362;4.978;2022-07-06T01:03:20;102606.16;;;15.60;38.88
55687;BME280;41911;52.362;4.978;2022-07-06T01:03:51;102605.80;;;15.61;39.02
55687;BME280;41911;52.362;4.978;2022-07-06T01:04:22;102605.98;;;15.69;38.99
55687;BME280;41911;52.362;4.978;2022-07-06T01:04:53;102604.79;;;15.69;38.98
55687;BME280;41911;52.362;4.978;2022-07-06T01:05:24;102604.44;;;15.68;38.89
55687;BME280;41911;52.362;4.978;2022-07-06T01:05:55;102604.70;;;16.33;38.81
55687;BME280;41911;52.362;4.978;2022-07-06T01:06:26;102606.60;;;15.67;38.86
55687;BME280;41911;52.362;4.978;2022-07-06T01:06:57;102604.90;;;15.64;38.93
55687;BME280;41911;52.362;4.978;2022-07-06T01:07:28;102605.59;;;15.56;38.86
55687;BME280;41911;52.362;4.978;2022-07-06T01:08:00;102604.96;;;15.51;38.88
55687;BME280;41911;52.362;4.978;2022-07-06T01:08:31;102605.76;;;16.14;38.89
55687;BME280;41911;52.362;4.978;2022-07-06T01:09:03;102606.08;;;15.58;39.04
55687;BME280;41911;52.362;4.978;2022-07-06T01:09:34;102606.91;;;15.89;39.12
55687;BME280;41911;52.362;4.978;2022-07-06T01:10:07;102608.27;;;15.94;39.17
55687;BME280;41911;52.362;4.978;2022-07-06T01:10:38;102609.10;;;15.70;39.17
55687;BME280;41911;52.362;4.978;2022-07-06T01:11:09;102612.32;;;15.76;39.10
55687;BME280;41911;52.362;4.978;2022-07-06T01:11:41;102611.26;;;16.21;38.88
55687;BME280;41911;52.362;4.978;2022-07-06T01:12:12;102609.54;;;16.53;38.91
55687;BME280;41911;52.362;4.978;2022-07-06T01:12:45;102610.66;;;16.00;38.86
55687;BME280;41911;52.362;4.978;2022-07-06T01:13:16;102609.11;;;15.97;38.79
55687;BME280;41911;52.362;4.978;2022-07-06T01:13:47;102608.97;;;16.06;38.66
55687;BME280;41911;52.362;4.978;2022-07-06T01:14:19;102610.34;;;16.10;38.76
55687;BME280;41911;52.362;4.978;2022-07-06T01:14:51;102610.12;;;16.15;38.72
55687;BME280;41911;52.362;4.978;2022-07-06T01:15:23;102609.89;;;16.08;38.51
55687;BME280;41911;52.362;4.978;2022-07-06T01:15:54;102609.30;;;16.07;38.61
55687;BME280;41911;52.362;4.978;2022-07-06T01:16:26;102610.96;;;16.13;38.57
55687;BME280;41911;52.362;4.978;2022-07-06T01:16:57;102610.10;;;15.95;38.24
55687;BME280;41911;52.362;4.978;2022-07-06T01:17:28;102609.27;;;16.22;38.40
55687;BME280;41911;52.362;4.978;2022-07-06T01:17:59;102610.57;;;16.28;38.37
55687;BME280;41911;52.362;4.978;2022-07-06T01:18:31;102610.36;;;15.97;38.37
55687;BME280;41911;52.362;4.978;2022-07-06T01:19:03;102611.23;;;16.38;37.98
55687;BME280;41911;52.362;4.978;2022-07-06T01:19:34;102610.15;;;16.48;37.92
55687;BME280;41911;52.362;4.978;2022-07-06T01:20:09;102609.69;;;16.53;37.96
55687;BME280;41911;52.362;4.978;2022-07-06T01:20:40;102610.68;;;16.49;38.06
55687;BME280;41911;52.362;4.978;2022-07-06T01:21:12;102611.51;;;16.58;38.14
55687;BME280;41911;52.362;4.978;2022-07-06T01:21:44;102611.20;;;16.44;38.12
55687;BME280;41911;52.362;4.978;2022-07-06T01:22:15;102611.99;;;16.44;38.08
55687;BME280;41911;52.362;4.978;2022-07-06T01:22:47;102610.38;;;16.58;37.52
55687;BME280;41911;52.362;4.978;2022-07-06T01:23:18;102611.83;;;16.60;37.43
55687;BME280;41911;52.362;4.978;2022-07-06T01:23:49;102612.69;;;16.58;37.12
55687;BME280;41911;52.362;4.978;2022-07-06T01:24:20;102612.31;;;16.54;37.27
55687;BME280;41911;52.362;4.978;2022-07-06T01:24:51;102611.72;;;16.84;37.44
55687;BME280;41911;52.362;4.978;2022-07-06T01:25:22;102614.69;;;16.52;37.44
55687;BME280;41911;52.362;4.978;2022-07-06T01:25:55;102611.31;;;16.93;37.38
55687;BME280;41911;52.362;4.978;2022-07-06T01:26:25;102613.42;;;16.93;37.47
55687;BME280;41911;52.362;4.978;2022-07-06T01:26:57;102614.99;;;16.69;37.56
55687;BME280;41911;52.362;4.978;2022-07-06T01:27:28;102613.38;;;16.74;37.59
55687;BME280;41911;52.362;4.978;2022-07-06T01:27:59;102613.43;;;16.76;37.63
55687;BME280;41911;52.362;4.978;2022-07-06T01:28:30;102613.25;;;16.89;37.66
55687;BME280;41911;52.362;4.978;2022-07-06T01:29:01;102613.04;;;17.18;37.67
55687;BME280;41911;52.362;4.978;2022-07-06T01:29:32;102612.29;;;16.80;37.26
55687;BME280;41911;52.362;4.978;2022-07-06T01:30:05;102611.78;;;17.17;37.40
55687;BME280;41911;52.362;4.978;2022-07-06T01:30:36;102611.52;;;17.15;37.45
55687;BME280;41911;52.362;4.978;2022-07-06T01:31:14;102612.44;;;17.03;37.53
55687;BME280;41911;52.362;4.978;2022-07-06T01:31:46;102608.88;;;17.16;37.58
55687;BME280;41911;52.362;4.978;2022-07-06T01:32:18;102610.21;;;16.93;37.55
55687;BME280;41911;52.362;4.978;2022-07-06T01:32:50;102609.05;;;16.99;37.49
55687;BME280;41911;52.362;4.978;2022-07-06T01:33:22;102607.81;;;17.05;37.18
55687;BME280;41911;52.362;4.978;2022-07-06T01:33:55;102607.88;;;17.26;37.21
55687;BME280;41911;52.362;4.978;2022-07-06T01:34:26;102604.25;;;16.99;37.28
55687;BME280;41911;52.362;4.978;2022-07-06T01:34:57;102604.95;;;17.05;37.00
55687;BME280;41911;52.362;4.978;2022-07-06T01:35:29;102601.64;;;17.04;36.68
55687;BME280;41911;52.362;4.978;2022-07-06T01:36:02;102602.41;;;17.09;36.58
55687;BME280;41911;52.362;4.978;2022-07-06T01:36:33;102604.04;;;17.49;36.43
55687;BME280;41911;52.362;4.978;2022-07-06T01:37:04;102601.88;;;17.13;36.61
55687;BME280;41911;52.362;4.978;2022-07-06T01:37:35;102600.26;;;17.05;36.84
55687;BME280;41911;52.362;4.978;2022-07-06T01:38:06;102601.17;;;17.08;36.85
55687;BME280;41911;52.362;4.978;2022-07-06T01:38:44;102598.04;;;16.73;37.00
55687;BME280;41911;52.362;4.978;2022-07-06T01:39:15;102598.46;;;17.37;37.02
55687;BME280;41911;52.362;4.978;2022-07-06T01:39:46;102598.68;;;17.03;36.71
55687;BME280;41911;52.362;4.978;2022-07-06T01:40:17;102598.12;;;16.97;36.82
55687;BME280;41911;52.362;4.978;2022-07-06T01:40:48;102596.67;;;16.93;36.82
55687;BME280;41911;52.362;4.978;2022-07-06T01:41:19;102596.96;;;16.96;36.84
55687;BME280;41911;52.362;4.978;2022-07-06T01:41:50;102595.74;;;17.03;36.33
55687;BME280;41911;52.362;4.978;2022-07-06T01:42:21;102595.58;;;17.24;36.53
55687;BME280;41911;52.362;4.978;2022-07-06T01:42:52;102593.37;;;16.98;36.32
55687;BME280;41911;52.362;4.978;2022-07-06T01:43:23;102596.07;;;17.66;36.15
55687;BME280;41911;52.362;4.978;2022-07-06T01:43:54;102595.28;;;17.39;36.05
55687;BME280;41911;52.362;4.978;2022-07-06T01:44:25;102595.32;;;16.97;36.38
55687;BME280;41911;52.362;4.978;2022-07-06T01:44:56;102595.79;;;16.97;36.62
55687;BME280;41911;52.362;4.978;2022-07-06T01:45:27;102596.22;;;17.04;36.50
55687;BME280;41911;52.362;4.978;2022-07-06T01:46:01;102597.96;;;17.36;36.55
55687;BME280;41911;52.362;4.978;2022-07-06T01:46:33;102595.81;;;17.04;36.62
55687;BME280;41911;52.362;4.978;2022-07-06T01:47:04;102596.59;;;17.08;36.60
55687;BME280;41911;52.362;4.978;2022-07-06T01:47:35;102597.84;;;17.31;35.88
55687;BME280;41911;52.362;4.978;2022-07-06T01:48:07;102597.55;;;17.15;35.77
55687;BME280;41911;52.362;4.978;2022-07-06T01:48:38;102596.63;;;16.76;36.22
55687;BME280;41911;52.362;4.978;2022-07-06T01:49:10;102596.53;;;17.04;36.33
55687;BME280;41911;52.362;4.978;2022-07-06T01:49:41;102595.44;;;17.07;36.52
55687;BME280;41911;52.362;4.978;2022-07-06T01:50:12;102596.24;;;17.07;36.51
55687;BME280;41911;52.362;4.978;2022-07-06T01:50:43;102598.37;;;17.25;36.56
55687;BME280;41911;52.362;4.978;2022-07-06T01:51:14;102598.24;;;17.29;36.67
55687;BME280;41911;52.362;4.978;2022-07-06T01:51:45;102598.94;;;17.02;36.60
55687;BME280;41911;52.362;4.978;2022-07-06T01:52:16;102599.20;;;17.03;36.43
55687;BME280;41911;52.362;4.978;2022-07-06T01:52:47;102601.52;;;17.13;36.31
55687;BME280;41911;52.362;4.978;2022-07-06T01:53:18;102600.00;;;17.38;36.56
55687;BME280;41911;52.362;4.978;2022-07-06T01:53:50;102599.21;;;17.48;36.55
55687;BME280;41911;52.362;4.978;2022-07-06T01:54:21;102597.64;;;17.10;36.36
55687;BME280;41911;52.362;4.978;2022-07-06T01:54:52;102598.24;;;17.12;36.13
55687;BME280;41911;52.362;4.978;2022-07-06T01:55:23;102597.39;;;17.68;35.81
55687;BME280;41911;52.362;4.978;2022-07-06T01:55:54;102595.53;;;17.35;35.85
55687;BME280;41911;52.362;4.978;2022-07-06T01:56:25;102596.40;;;17.33;36.18
55687;BME280;41911;52.362;4.978;2022-07-06T01:56:56;102595.46;;;17.32;36.09
55687;BME280;41911;52.362;4.978;2022-07-06T01:57:27;102597.06;;;17.20;36.28
55687;BME280;41911;52.362;4.978;2022-07-06T01:57:57;102598.35;;;17.30;36.24
55687;BME280;41911;52.362;4.978;2022-07-06T01:58:29;102598.36;;;16.88;36.39
55687;BME280;41911;52.362;4.978;2022-07-06T01:59:00;102597.50;;;17.21;36.38
55687;BME280;41911;52.362;4.978;2022-07-06T01:59:31;102595.95;;;17.31;36.20
55687;BME280;41911;52.362;4.978;2022-07-06T02:00:04;102597.54;;;17.52;36.23
55687;BME280;41911;52.362;4.978;2022-07-06T02:00:35;102597.27;;;17.24;36.43
55687;BME280;41911;52.362;4.978;2022-07-06T02:01:08;102598.67;;;17.53;36.56
55687;BME280;41911;52.362;4.978;2022-07-06T02:01:39;102597.20;;;17.19;36.74
55687;BME280;41911;52.362;4.978;2022-07-06T02:02:10;102596.87;;;17.45;36.83
55687;BME280;41911;52.362;4.978;2022-07-06T02:02:41;102597.19;;;17.24;36.81
55687;BME280;41911;52.362;4.978;2022-07-06T02:03:12;102595.74;;;17.09;36.55
55687;BME280;41911;52.362;4.978;2022-07-06T02:03:43;102593.76;;;17.02;36.44
55687;BME280;41911;52.362;4.978;2022-07-06T02:04:15;102595.66;;;17.02;36.72
55687;BME280;41911;52.362;4.978;2022-07-06T02:04:46;102596.96;;;17.05;36.92
55687;BME280;41911;52.362;4.978;2022-07-06T02:05:16;102595.95;;;17.16;37.05
55687;BME280;41911;52.362;4.978;2022-07-06T02:05:47;102596.24;;;17.17;36.99
55687;BME280;41911;52.362;4.978;2022-07-06T02:06:18;102596.82;;;17.16;37.05
55687;BME280;41911;52.362;4.978;2022-07-06T02:06:49;102596.28;;;17.49;36.71
55687;BME280;41911;52.362;4.978;2022-07-06T02:07:20;102597.37;;;17.10;36.41
55687;BME280;41911;52.362;4.978;2022-07-06T02:07:51;102599.77;;;17.29;36.61
55687;BME280;41911;52.362;4.978;2022-07-06T02:08:22;102599.11;;;17.29;36.90
55687;BME280;41911;52.362;4.978;2022-07-06T02:08:53;102598.14;;;17.29;36.86
55687;BME280;41911;52.362;4.978;2022-07-06T02:09:24;102596.82;;;17.38;36.71
55687;BME280;41911;52.362;4.978;2022-07-06T02:09:55;102594.18;;;17.02;36.61
55687;BME280;41911;52.362;4.978;2022-07-06T02:10:26;102593.23;;;17.29;36.34
55687;BME280;41911;52.362;4.978;2022-07-06T02:10:57;102594.00;;;17.46;35.93
55687;BME280;41911;52.362;4.978;2022-07-06T02:11:28;102593.40;;;17.11;36.20
55687;BME280;41911;52.362;4.978;2022-07-06T02:11:58;102593.62;;;17.39;36.34
55687;BME280;41911;52.362;4.978;2022-07-06T02:12:30;102592.69;;;17.57;36.21
55687;BME280;41911;52.362;4.978;2022-07-06T02:13:01;102591.47;;;17.07;36.17
55687;BME280;41911;52.362;4.978;2022-07-06T02:13:32;102590.58;;;17.64;36.43
55687;BME280;41911;52.362;4.978;2022-07-06T02:14:03;102590.71;;;17.33;36.46
55687;BME280;41911;52.362;4.978;2022-07-06T02:14:34;102592.78;;;17.35;36.70
55687;BME280;41911;52.362;4.978;2022-07-06T02:15:06;102591.96;;;17.40;36.29
55687;BME280;41911;52.362;4.978;2022-07-06T02:15:37;102591.63;;;17.41;35.97
55687;BME280;41911;52.362;4.978;2022-07-06T02:16:14;102587.83;;;17.23;35.85
55687;BME280;41911;52.362;4.978;2022-07-06T02:16:44;102591.12;;;17.10;35.98
55687;BME280;41911;52.362;4.978;2022-07-06T02:17:15;102590.84;;;17.03;36.33
55687;BME280;41911;52.362;4.978;2022-07-06T02:17:46;102591.06;;;16.91;36.36
55687;BME280;41911;52.362;4.978;2022-07-06T02:18:17;102590.87;;;16.75;36.53
55687;BME280;41911;52.362;4.978;2022-07-06T02:18:48;102589.54;;;16.84;36.72
55687;BME280;41911;52.362;4.978;2022-07-06T02:19:19;102588.92;;;17.14;36.75
55687;BME280;41911;52.362;4.978;2022-07-06T02:19:50;102586.89;;;17.16;36.66
55687;BME280;41911;52.362;4.978;2022-07-06T02:20:21;102586.71;;;17.12;36.62
55687;BME280;41911;52.362;4.978;2022-07-06T02:20:52;102587.05;;;16.91;36.78
55687;BME280;41911;52.362;4.978;2022-07-06T02:21:23;102590.17;;;17.08;36.81
55687;BME280;41911;52.362;4.978;2022-07-06T02:21:54;102591.03;;;16.90;36.94
55687;BME280;41911;52.362;4.978;2022-07-06T02:22:25;102589.70;;;16.46;37.24
55687;BME280;41911;52.362;4.978;2022-07-06T02:22:56;102592.72;;;16.79;37.30
55687;BME280;41911;52.362;4.978;2022-07-06T02:23:27;102595.30;;;16.51;37.28
55687;BME280;41911;52.362;4.978;2022-07-06T02:24:04;102592.99;;;16.82;37.37
55687;BME280;41911;52.362;4.978;2022-07-06T02:24:35;102594.26;;;16.76;37.37
55687;BME280;41911;52.362;4.978;2022-07-06T02:25:07;102592.50;;;16.71;37.51
55687;BME280;41911;52.362;4.978;2022-07-06T02:25:38;102592.01;;;16.84;37.48
55687;BME280;41911;52.362;4.978;2022-07-06T02:26:09;102593.25;;;16.76;37.40
55687;BME280;41911;52.362;4.978;2022-07-06T02:26:40;102593.82;;;16.72;37.41
55687;BME280;41911;52.362;4.978;2022-07-06T02:27:11;102592.66;;;16.51;37.46
55687;BME280;41911;52.362;4.978;2022-07-06T02:27:42;102593.51;;;16.85;37.50
55687;BME280;41911;52.362;4.978;2022-07-06T02:28:13;102594.07;;;16.43;37.41
55687;BME280;41911;52.362;4.978;2022-07-06T02:28:44;102593.84;;;16.77;37.50
55687;BME280;41911;52.362;4.978;2022-07-06T02:29:15;102594.13;;;16.71;37.53
55687;BME280;41911;52.362;4.978;2022-07-06T02:29:46;102593.46;;;16.49;37.25
55687;BME280;41911;52.362;4.978;2022-07-06T02:30:17;102592.34;;;16.31;37.42
55687;BME280;41911;52.362;4.978;2022-07-06T02:30:48;102591.93;;;16.59;37.57
55687;BME280;41911;52.362;4.978;2022-07-06T02:31:19;102593.06;;;16.49;37.63
55687;BME280;41911;52.362;4.978;2022-07-06T02:31:50;102594.27;;;16.29;37.68
55687;BME280;41911;52.362;4.978;2022-07-06T02:32:21;102593.93;;;16.54;37.45
55687;BME280;41911;52.362;4.978;2022-07-06T02:32:51;102592.11;;;16.46;37.51
55687;BME280;41911;52.362;4.978;2022-07-06T02:33:23;102593.87;;;16.33;37.68
55687;BME280;41911;52.362;4.978;2022-07-06T02:33:54;102595.17;;;16.54;37.69
55687;BME280;41911;52.362;4.978;2022-07-06T02:34:24;102594.89;;;16.29;37.66
55687;BME280;41911;52.362;4.978;2022-07-06T02:34:55;102594.10;;;16.16;37.80
55687;BME280;41911;52.362;4.978;2022-07-06T02:35:26;102594.31;;;16.10;37.91
55687;BME280;41911;52.362;4.978;2022-07-06T02:35:57;102593.52;;;16.17;37.63
55687;BME280;41911;52.362;4.978;2022-07-06T02:36:28;102592.00;;;16.10;37.70
55687;BME280;41911;52.362;4.978;2022-07-06T02:36:59;102593.25;;;16.49;37.77
55687;BME280;41911;52.362;4.978;2022-07-06T02:37:30;102592.85;;;16.42;37.78
55687;BME280;41911;52.362;4.978;2022-07-06T02:38:01;102591.26;;;16.34;37.68
55687;BME280;41911;52.362;4.978;2022-07-06T02:38:32;102588.55;;;16.19;37.72
55687;BME280;41911;52.362;4.978;2022-07-06T02:39:03;102588.19;;;15.92;37.66
55687;BME280;41911;52.362;4.978;2022-07-06T02:39:34;102589.22;;;15.95;37.58
55687;BME280;41911;52.362;4.978;2022-07-06T02:40:06;102589.77;;;15.97;37.69
55687;BME280;41911;52.362;4.978;2022-07-06T02:40:38;102590.91;;;16.24;37.60
55687;BME280;41911;52.362;4.978;2022-07-06T02:41:09;102588.66;;;15.88;37.73
55687;BME280;41911;52.362;4.978;2022-07-06T02:41:40;102587.99;;;16.16;37.81
55687;BME280;41911;52.362;4.978;2022-07-06T02:42:11;102590.09;;;16.07;37.85
55687;BME280;41911;52.362;4.978;2022-07-06T02:42:42;102590.89;;;16.05;37.99
55687;BME280;41911;52.362;4.978;2022-07-06T02:43:13;102589.83;;;16.34;37.83
55687;BME280;41911;52.362;4.978;2022-07-06T02:43:44;102591.39;;;15.75;37.89